sensor_id;sensor_type;location;lat;lon;timestamp;P1;durP1;ratioP1;P2;durP2;ratioP2
21301;SDS011;10810;48.270;9.996;2022-07-06T00:01:36;3.20;;;1.67;;
21301;SDS011;10810;48.270;9.996;2022-07-06T00:04:04;2.83;;;1.60;;
21301;SDS011;10810;48.270;9.996;2022-07-06T00:06:32;1.83;;;1.50;;
21301;SDS011;10810;48.270;9.996;2022-07-06T00:09:00;2.17;;;1.50;;
21301;SDS011;10810;48.270;9.996;2022-07-06T00:11:27;3.15;;;1.85;;
21301;SDS011;10810;48.270;9.996;2022-07-06T00:13:56;1.60;;;1.30;;
21301;SDS011;10810;48.270;9.996;2022-07-06T00:16:23;1.90;;;1.40;;
21301;SDS011;10810;48.270;9.996;2022-07-06T00:18:51;2.67;;;1.40;;
21301;SDS011;10810;48.270;9.996;2022-07-06T00:21:18;1.80;;;1.50;;
21301;SDS011;10810;48.270;9.996;2022-07-06T00:23:45;1.90;;;1.55;;
21301;SDS011;10810;48.270;9.996;2022-07-06T00:26:13;1.50;;;1.40;;
21301;SDS011;10810;48.270;9.996;2022-07-06T00:28:40;2.53;;;1.45;;
21301;SDS011;10810;48.270;9.996;2022-07-06T00:31:09;2.00;;;1.50;;
21301;SDS011;10810;48.270;9.996;2022-07-06T00:33:36;1.80;;;1.40;;
21301;SDS011;10810;48.270;9.996;2022-07-06T00:36:18;1.90;;;1.40;;
21301;SDS011;10810;48.270;9.996;2022-07-06T00:38:46;2.00;;;1.48;;
21301;SDS011;10810;48.270;9.996;2022-07-06T00:41:13;1.92;;;1.40;;
21301;SDS011;10810;48.270;9.996;2022-07-06T00:43:47;1.73;;;1.38;;
21301;SDS011;10810;48.270;9.996;2022-07-06T00:46:16;2.08;;;1.40;;
21301;SDS011;10810;48.270;9.996;2022-07-06T00:48:44;3.95;;;1.40;;
21301;SDS011;10810;48.270;9.996;2022-07-06T00:51:11;1.73;;;1.30;;
21301;SDS011;10810;48.270;9.996;2022-07-06T00:53:39;1.40;;;1.20;;
21301;SDS011;10810;48.270;9.996;2022-07-06T00:56:08;2.63;;;1.50;;
21301;SDS011;10810;48.270;9.996;2022-07-06T00:58:36;2.15;;;1.48;;
21301;SDS011;10810;48.270;9.996;2022-07-06T01:01:03;2.40;;;1.30;;
21301;SDS011;10810;48.270;9.996;2022-07-06T01:03:32;2.28;;;1.60;;
21301;SDS011;10810;48.270;9.996;2022-07-06T01:05:59;2.13;;;1.55;;
21301;SDS011;10810;48.270;9.996;2022-07-06T01:08:27;2.53;;;1.55;;
21301;SDS011;10810;48.270;9.996;2022-07-06T01:10:55;1.98;;;1.50;;
21301;SDS011;10810;48.270;9.996;2022-07-06T01:13:22;3.08;;;1.60;;
21301;SDS011;10810;48.270;9.996;2022-07-06T01:15:50;1.52;;;1.30;;
21301;SDS011;10810;48.270;9.996;2022-07-06T01:18:17;2.08;;;1.42;;
21301;SDS011;10810;48.270;9.996;2022-07-06T01:20:46;1.85;;;1.45;;
21301;SDS011;10810;48.270;9.996;2022-07-06T01:23:13;1.55;;;1.38;;
21301;SDS011;10810;48.270;9.996;2022-07-06T01:25:40;5.80;;;1.50;;
21301;SDS011;10810;48.270;9.996;2022-07-06T01:28:07;2.08;;;1.60;;
21301;SDS011;10810;48.270;9.996;2022-07-06T01:30:34;1.75;;;1.38;;
21301;SDS011;10810;48.270;9.996;2022-07-06T01:33:01;2.03;;;1.40;;
21301;SDS011;10810;48.270;9.996;2022-07-06T01:35:29;1.80;;;1.30;;
21301;SDS011;10810;48.270;9.996;2022-07-06T01:37:59;2.38;;;1.35;;
21301;SDS011;10810;48.270;9.996;2022-07-06T01:40:26;2.38;;;1.42;;
21301;SDS011;10810;48.270;9.996;2022-07-06T01:42:53;1.50;;;1.20;;
21301;SDS011;10810;48.270;9.996;2022-07-06T01:45:20;2.05;;;1.40;;
21301;SDS011;10810;48.270;9.996;2022-07-06T01:47:47;2.35;;;1.30;;
21301;SDS011;10810;48.270;9.996;2022-07-06T01:50:14;2.00;;;1.40;;
21301;SDS011;10810;48.270;9.996;2022-07-06T01:52:41;1.83;;;1.48;;
21301;SDS011;10810;48.270;9.996;2022-07-06T01:55:10;3.85;;;1.40;;
21301;SDS011;10810;48.270;9.996;2022-07-06T01:57:37;5.33;;;1.53;;
21301;SDS011;10810;48.270;9.996;2022-07-06T02:00:05;1.70;;;1.30;;
21301;SDS011;10810;48.270;9.996;2022-07-06T02:02:33;2.53;;;1.50;;
21301;SDS011;10810;48.270;9.996;2022-07-06T02:05:00;2.33;;;1.40;;
21301;SDS011;10810;48.270;9.996;2022-07-06T02:07:27;1.43;;;1.30;;
21301;SDS011;10810;48.270;9.996;2022-07-06T02:09:54;2.17;;;1.50;;
21301;SDS011;10810;48.270;9.996;2022-07-06T02:12:22;1.92;;;1.50;;
21301;SDS011;10810;48.270;9.996;2022-07-06T02:14:49;1.92;;;1.50;;
21301;SDS011;10810;48.270;9.996;2022-07-06T02:17:16;1.58;;;1.33;;
21301;SDS011;10810;48.270;9.996;2022-07-06T02:19:43;3.67;;;1.40;;
21301;SDS011;10810;48.270;9.996;2022-07-06T02:22:10;3.00;;;1.40;;
21301;SDS011;10810;48.270;9.996;2022-07-06T02:24:37;1.90;;;1.60;;
21301;SDS011;10810;48.270;9.996;2022-07-06T02:27:04;3.53;;;1.40;;
21301;SDS011;10810;48.270;9.996;2022-07-06T02:29:33;2.65;;;1.60;;
21301;SDS011;10810;48.270;9.996;2022-07-06T02:32:00;2.10;;;1.48;;
21301;SDS011;10810;48.270;9.996;2022-07-06T02:34:27;3.30;;;1.58;;
21301;SDS011;10810;48.270;9.996;2022-07-06T02:36:55;1.95;;;1.35;;
21301;SDS011;10810;48.270;9.996;2022-07-06T02:39:22;1.90;;;1.40;;
21301;SDS011;10810;48.270;9.996;2022-07-06T02:41:49;1.87;;;1.60;;
21301;SDS011;10810;48.270;9.996;2022-07-06T02:44:16;1.85;;;1.60;;
21301;SDS011;10810;48.270;9.996;2022-07-06T02:46:44;1.70;;;1.48;;
21301;SDS011;10810;48.270;9.996;2022-07-06T02:49:11;2.93;;;1.67;;
21301;SDS011;10810;48.270;9.996;2022-07-06T02:51:38;2.20;;;1.40;;
21301;SDS011;10810;48.270;9.996;2022-07-06T02:54:05;1.70;;;1.60;;
21301;SDS011;10810;48.270;9.996;2022-07-06T02:56:33;5.13;;;1.70;;
21301;SDS011;10810;48.270;9.996;2022-07-06T02:59:00;1.77;;;1.50;;
21301;SDS011;10810;48.270;9.996;2022-07-06T03:01:27;1.63;;;1.40;;
21301;SDS011;10810;48.270;9.996;2022-07-06T03:03:55;5.73;;;1.50;;
21301;SDS011;10810;48.270;9.996;2022-07-06T03:06:22;2.55;;;1.65;;
21301;SDS011;10810;48.270;9.996;2022-07-06T03:08:50;2.70;;;1.80;;
21301;SDS011;10810;48.270;9.996;2022-07-06T03:11:17;2.15;;;1.50;;
21301;SDS011;10810;48.270;9.996;2022-07-06T03:13:44;2.78;;;1.70;;
21301;SDS011;10810;48.270;9.996;2022-07-06T03:16:11;2.77;;;1.27;;
21301;SDS011;10810;48.270;9.996;2022-07-06T03:18:38;2.13;;;1.53;;
21301;SDS011;10810;48.270;9.996;2022-07-06T03:21:06;4.97;;;1.80;;
21301;SDS011;10810;48.270;9.996;2022-07-06T03:23:33;2.80;;;1.70;;
21301;SDS011;10810;48.270;9.996;2022-07-06T03:26:00;1.77;;;1.37;;
21301;SDS011;10810;48.270;9.996;2022-07-06T03:28:27;1.70;;;1.48;;
21301;SDS011;10810;48.270;9.996;2022-07-06T03:30:54;2.00;;;1.50;;
21301;SDS011;10810;48.270;9.996;2022-07-06T03:33:22;2.33;;;1.67;;
21301;SDS011;10810;48.270;9.996;2022-07-06T03:35:49;2.30;;;1.60;;
21301;SDS011;10810;48.270;9.996;2022-07-06T03:38:17;2.33;;;1.53;;
21301;SDS011;10810;48.270;9.996;2022-07-06T03:40:44;3.17;;;1.63;;
21301;SDS011;10810;48.270;9.996;2022-07-06T03:43:11;2.80;;;1.80;;
21301;SDS011;10810;48.270;9.996;2022-07-06T03:45:38;2.80;;;1.80;;
21301;SDS011;10810;48.270;9.996;2022-07-06T03:48:05;2.27;;;1.57;;
21301;SDS011;10810;48.270;9.996;2022-07-06T03:50:32;2.10;;;1.50;;
21301;SDS011;10810;48.270;9.996;2022-07-06T03:53:00;2.50;;;1.80;;
21301;SDS011;10810;48.270;9.996;2022-07-06T03:55:28;6.97;;;1.70;;
21301;SDS011;10810;48.270;9.996;2022-07-06T03:57:56;2.47;;;1.80;;
21301;SDS011;10810;48.270;9.996;2022-07-06T04:00:23;2.90;;;1.90;;
21301;SDS011;10810;48.270;9.996;2022-07-06T04:02:50;2.20;;;1.67;;
21301;SDS011;10810;48.270;9.996;2022-07-06T04:05:17;2.37;;;1.80;;
21301;SDS011;10810;48.270;9.996;2022-07-06T04:07:46;3.07;;;1.83;;
21301;SDS011;10810;48.270;9.996;2022-07-06T04:10:13;2.87;;;1.80;;
21301;SDS011;10810;48.270;9.996;2022-07-06T04:12:42;2.87;;;1.93;;
21301;SDS011;10810;48.270;9.996;2022-07-06T04:15:10;3.73;;;2.07;;
21301;SDS011;10810;48.270;9.996;2022-07-06T04:17:38;2.90;;;1.87;;
21301;SDS011;10810;48.270;9.996;2022-07-06T04:20:21;3.00;;;1.93;;
21301;SDS011;10810;48.270;9.996;2022-07-06T04:22:50;2.30;;;1.70;;
21301;SDS011;10810;48.270;9.996;2022-07-06T04:25:17;2.67;;;1.87;;
21301;SDS011;10810;48.270;9.996;2022-07-06T04:27:45;3.07;;;1.70;;
21301;SDS011;10810;48.270;9.996;2022-07-06T04:30:13;4.00;;;1.90;;
21301;SDS011;10810;48.270;9.996;2022-07-06T04:32:40;2.10;;;1.77;;
21301;SDS011;10810;48.270;9.996;2022-07-06T04:35:07;2.53;;;1.73;;
21301;SDS011;10810;48.270;9.996;2022-07-06T04:37:35;2.60;;;1.80;;
21301;SDS011;10810;48.270;9.996;2022-07-06T04:40:02;2.27;;;1.80;;
21301;SDS011;10810;48.270;9.996;2022-07-06T04:42:30;2.70;;;1.93;;
21301;SDS011;10810;48.270;9.996;2022-07-06T04:44:59;3.17;;;2.00;;
21301;SDS011;10810;48.270;9.996;2022-07-06T04:47:26;2.77;;;1.50;;
21301;SDS011;10810;48.270;9.996;2022-07-06T04:49:53;3.90;;;1.83;;
21301;SDS011;10810;48.270;9.996;2022-07-06T04:52:20;3.95;;;2.08;;
21301;SDS011;10810;48.270;9.996;2022-07-06T04:54:47;2.20;;;1.80;;
21301;SDS011;10810;48.270;9.996;2022-07-06T04:57:18;2.63;;;1.97;;
21301;SDS011;10810;48.270;9.996;2022-07-06T04:59:45;2.63;;;1.90;;
21301;SDS011;10810;48.270;9.996;2022-07-06T05:02:14;3.57;;;1.80;;
21301;SDS011;10810;48.270;9.996;2022-07-06T05:04:41;2.60;;;1.70;;
21301;SDS011;10810;48.270;9.996;2022-07-06T05:07:08;2.90;;;2.10;;
21301;SDS011;10810;48.270;9.996;2022-07-06T05:09:35;4.17;;;2.00;;
21301;SDS011;10810;48.270;9.996;2022-07-06T05:12:02;2.13;;;1.70;;
21301;SDS011;10810;48.270;9.996;2022-07-06T05:14:30;2.47;;;1.80;;
21301;SDS011;10810;48.270;9.996;2022-07-06T05:16:57;3.07;;;1.83;;
21301;SDS011;10810;48.270;9.996;2022-07-06T05:19:25;4.23;;;2.53;;
21301;SDS011;10810;48.270;9.996;2022-07-06T05:21:52;2.30;;;1.83;;
21301;SDS011;10810;48.270;9.996;2022-07-06T05:24:19;3.00;;;1.90;;
21301;SDS011;10810;48.270;9.996;2022-07-06T05:26:46;2.03;;;1.63;;
21301;SDS011;10810;48.270;9.996;2022-07-06T05:29:13;3.07;;;2.00;;
21301;SDS011;10810;48.270;9.996;2022-07-06T05:31:41;2.33;;;1.67;;
21301;SDS011;10810;48.270;9.996;2022-07-06T05:34:08;3.50;;;1.90;;
21301;SDS011;10810;48.270;9.996;2022-07-06T05:36:36;3.47;;;1.87;;
21301;SDS011;10810;48.270;9.996;2022-07-06T05:39:03;3.13;;;1.80;;
21301;SDS011;10810;48.270;9.996;2022-07-06T05:41:30;3.50;;;2.00;;
21301;SDS011;10810;48.270;9.996;2022-07-06T05:43:57;2.80;;;2.00;;
21301;SDS011;10810;48.270;9.996;2022-07-06T05:46:25;4.20;;;1.90;;
21301;SDS011;10810;48.270;9.996;2022-07-06T05:48:53;3.47;;;2.07;;
21301;SDS011;10810;48.270;9.996;2022-07-06T05:51:40;3.53;;;1.98;;
21301;SDS011;10810;48.270;9.996;2022-07-06T05:54:08;4.03;;;2.10;;
21301;SDS011;10810;48.270;9.996;2022-07-06T05:56:35;4.00;;;2.00;;
21301;SDS011;10810;48.270;9.996;2022-07-06T05:59:02;2.33;;;1.80;;
21301;SDS011;10810;48.270;9.996;2022-07-06T06:01:29;3.67;;;2.40;;
21301;SDS011;10810;48.270;9.996;2022-07-06T06:03:59;3.87;;;2.20;;
21301;SDS011;10810;48.270;9.996;2022-07-06T06:06:26;3.07;;;2.10;;
21301;SDS011;10810;48.270;9.996;2022-07-06T06:08:57;3.40;;;2.40;;
21301;SDS011;10810;48.270;9.996;2022-07-06T06:11:26;4.23;;;2.00;;
21301;SDS011;10810;48.270;9.996;2022-07-06T06:13:53;3.73;;;2.27;;
21301;SDS011;10810;48.270;9.996;2022-07-06T06:16:20;4.37;;;2.23;;
21301;SDS011;10810;48.270;9.996;2022-07-06T06:18:51;3.83;;;2.23;;
21301;SDS011;10810;48.270;9.996;2022-07-06T06:21:22;3.20;;;2.38;;
21301;SDS011;10810;48.270;9.996;2022-07-06T06:23:50;3.90;;;2.40;;
21301;SDS011;10810;48.270;9.996;2022-07-06T06:26:18;3.13;;;2.10;;
21301;SDS011;10810;48.270;9.996;2022-07-06T06:28:46;3.43;;;2.20;;
21301;SDS011;10810;48.270;9.996;2022-07-06T06:31:13;3.17;;;2.20;;
21301;SDS011;10810;48.270;9.996;2022-07-06T06:33:40;3.63;;;2.20;;
21301;SDS011;10810;48.270;9.996;2022-07-06T06:36:07;3.85;;;2.28;;
21301;SDS011;10810;48.270;9.996;2022-07-06T06:38:35;3.45;;;2.35;;
21301;SDS011;10810;48.270;9.996;2022-07-06T07:05:15;3.60;;;2.30;;
21301;SDS011;10810;48.270;9.996;2022-07-06T07:10:37;3.30;;;2.20;;
21301;SDS011;10810;48.270;9.996;2022-07-06T07:13:06;2.42;;;2.03;;
21301;SDS011;10810;48.270;9.996;2022-07-06T07:15:34;3.60;;;2.30;;
21301;SDS011;10810;48.270;9.996;2022-07-06T07:18:12;2.92;;;2.28;;
21301;SDS011;10810;48.270;9.996;2022-07-06T07:20:41;4.53;;;2.57;;
21301;SDS011;10810;48.270;9.996;2022-07-06T07:23:08;3.00;;;2.30;;
21301;SDS011;10810;48.270;9.996;2022-07-06T07:25:35;4.32;;;2.42;;
21301;SDS011;10810;48.270;9.996;2022-07-06T07:28:03;5.00;;;2.30;;
21301;SDS011;10810;48.270;9.996;2022-07-06T07:30:31;3.33;;;2.20;;
21301;SDS011;10810;48.270;9.996;2022-07-06T07:32:58;5.18;;;2.33;;
21301;SDS011;10810;48.270;9.996;2022-07-06T07:35:26;3.25;;;2.30;;
21301;SDS011;10810;48.270;9.996;2022-07-06T07:37:56;3.63;;;2.45;;
21301;SDS011;10810;48.270;9.996;2022-07-06T07:40:54;3.70;;;2.50;;
21301;SDS011;10810;48.270;9.996;2022-07-06T07:43:27;4.63;;;2.55;;
21301;SDS011;10810;48.270;9.996;2022-07-06T07:45:54;4.88;;;2.30;;
21301;SDS011;10810;48.270;9.996;2022-07-06T07:48:21;4.38;;;2.50;;
21301;SDS011;10810;48.270;9.996;2022-07-06T07:50:48;2.85;;;2.20;;
21301;SDS011;10810;48.270;9.996;2022-07-06T07:53:17;3.03;;;2.20;;
21301;SDS011;10810;48.270;9.996;2022-07-06T07:55:44;4.32;;;2.50;;
21301;SDS011;10810;48.270;9.996;2022-07-06T07:58:11;3.55;;;2.17;;
21301;SDS011;10810;48.270;9.996;2022-07-06T08:00:38;3.13;;;2.05;;
21301;SDS011;10810;48.270;9.996;2022-07-06T08:03:05;3.35;;;2.13;;
21301;SDS011;10810;48.270;9.996;2022-07-06T08:05:32;3.25;;;2.20;;
21301;SDS011;10810;48.270;9.996;2022-07-06T08:07:59;3.15;;;2.13;;
21301;SDS011;10810;48.270;9.996;2022-07-06T08:10:28;3.05;;;1.92;;
21301;SDS011;10810;48.270;9.996;2022-07-06T08:12:55;3.45;;;2.17;;
21301;SDS011;10810;48.270;9.996;2022-07-06T08:15:22;2.97;;;2.00;;
21301;SDS011;10810;48.270;9.996;2022-07-06T08:17:51;3.30;;;2.25;;
21301;SDS011;10810;48.270;9.996;2022-07-06T08:20:18;3.35;;;2.17;;
21301;SDS011;10810;48.270;9.996;2022-07-06T08:22:45;3.15;;;2.17;;
21301;SDS011;10810;48.270;9.996;2022-07-06T08:25:12;3.20;;;2.20;;
21301;SDS011;10810;48.270;9.996;2022-07-06T08:27:41;3.20;;;2.20;;
21301;SDS011;10810;48.270;9.996;2022-07-06T08:30:08;4.03;;;2.25;;
21301;SDS011;10810;48.270;9.996;2022-07-06T08:32:37;4.03;;;2.15;;
21301;SDS011;10810;48.270;9.996;2022-07-06T08:35:07;3.25;;;2.30;;
21301;SDS011;10810;48.270;9.996;2022-07-06T08:37:35;2.90;;;2.10;;
21301;SDS011;10810;48.270;9.996;2022-07-06T08:40:02;4.80;;;2.33;;
21301;SDS011;10810;48.270;9.996;2022-07-06T08:42:31;3.95;;;2.47;;
21301;SDS011;10810;48.270;9.996;2022-07-06T08:45:01;3.95;;;1.95;;
21301;SDS011;10810;48.270;9.996;2022-07-06T08:47:30;3.75;;;2.30;;
21301;SDS011;10810;48.270;9.996;2022-07-06T08:49:57;2.72;;;2.10;;
21301;SDS011;10810;48.270;9.996;2022-07-06T08:52:25;3.42;;;2.20;;
21301;SDS011;10810;48.270;9.996;2022-07-06T08:54:52;3.60;;;2.13;;
21301;SDS011;10810;48.270;9.996;2022-07-06T08:57:22;2.70;;;2.20;;
21301;SDS011;10810;48.270;9.996;2022-07-06T08:59:50;3.13;;;2.30;;
21301;SDS011;10810;48.270;9.996;2022-07-06T09:02:21;2.15;;;1.75;;
21301;SDS011;10810;48.270;9.996;2022-07-06T09:04:52;3.00;;;2.03;;
21301;SDS011;10810;48.270;9.996;2022-07-06T09:07:23;3.60;;;2.30;;
21301;SDS011;10810;48.270;9.996;2022-07-06T09:09:52;3.92;;;2.30;;
21301;SDS011;10810;48.270;9.996;2022-07-06T09:12:29;3.70;;;2.42;;
21301;SDS011;10810;48.270;9.996;2022-07-06T09:15:02;3.53;;;2.30;;
21301;SDS011;10810;48.270;9.996;2022-07-06T09:17:37;3.60;;;2.50;;
21301;SDS011;10810;48.270;9.996;2022-07-06T09:20:06;3.75;;;2.10;;
21301;SDS011;10810;48.270;9.996;2022-07-06T09:22:53;3.53;;;2.33;;
21301;SDS011;10810;48.270;9.996;2022-07-06T09:25:25;3.22;;;2.35;;
21301;SDS011;10810;48.270;9.996;2022-07-06T09:28:03;3.50;;;2.60;;
21301;SDS011;10810;48.270;9.996;2022-07-06T09:30:52;3.20;;;2.38;;
21301;SDS011;10810;48.270;9.996;2022-07-06T09:33:28;3.47;;;2.30;;
21301;SDS011;10810;48.270;9.996;2022-07-06T09:35:55;3.35;;;2.10;;
21301;SDS011;10810;48.270;9.996;2022-07-06T09:38:26;3.92;;;2.35;;
21301;SDS011;10810;48.270;9.996;2022-07-06T09:40:53;3.30;;;2.40;;
21301;SDS011;10810;48.270;9.996;2022-07-06T09:43:26;3.75;;;2.70;;
21301;SDS011;10810;48.270;9.996;2022-07-06T09:45:55;3.50;;;2.42;;
21301;SDS011;10810;48.270;9.996;2022-07-06T09:48:25;3.40;;;2.33;;
21301;SDS011;10810;48.270;9.996;2022-07-06T09:50:54;4.55;;;2.47;;
21301;SDS011;10810;48.270;9.996;2022-07-06T09:53:23;4.65;;;2.47;;
21301;SDS011;10810;48.270;9.996;2022-07-06T09:55:52;4.07;;;2.67;;
21301;SDS011;10810;48.270;9.996;2022-07-06T09:58:20;3.97;;;2.30;;
21301;SDS011;10810;48.270;9.996;2022-07-06T10:00:48;6.55;;;2.50;;
21301;SDS011;10810;48.270;9.996;2022-07-06T10:03:16;3.38;;;2.42;;
21301;SDS011;10810;48.270;9.996;2022-07-06T10:05:46;3.80;;;2.58;;
21301;SDS011;10810;48.270;9.996;2022-07-06T10:08:15;2.85;;;2.30;;
21301;SDS011;10810;48.270;9.996;2022-07-06T10:10:43;3.90;;;2.50;;
21301;SDS011;10810;48.270;9.996;2022-07-06T10:13:11;3.65;;;2.15;;
21301;SDS011;10810;48.270;9.996;2022-07-06T10:15:39;2.80;;;2.35;;
21301;SDS011;10810;48.270;9.996;2022-07-06T10:18:07;4.78;;;2.72;;
21301;SDS011;10810;48.270;9.996;2022-07-06T10:20:36;3.53;;;2.53;;
21301;SDS011;10810;48.270;9.996;2022-07-06T10:23:08;4.95;;;2.70;;
21301;SDS011;10810;48.270;9.996;2022-07-06T10:25:35;4.13;;;2.60;;
21301;SDS011;10810;48.270;9.996;2022-07-06T10:28:02;4.05;;;2.47;;
21301;SDS011;10810;48.270;9.996;2022-07-06T10:30:38;3.78;;;2.38;;
21301;SDS011;10810;48.270;9.996;2022-07-06T10:33:06;4.15;;;2.40;;
21301;SDS011;10810;48.270;9.996;2022-07-06T10:35:34;3.03;;;2.20;;
21301;SDS011;10810;48.270;9.996;2022-07-06T10:38:05;3.92;;;2.40;;
21301;SDS011;10810;48.270;9.996;2022-07-06T10:40:34;3.72;;;2.60;;
21301;SDS011;10810;48.270;9.996;2022-07-06T10:43:19;4.25;;;2.50;;
21301;SDS011;10810;48.270;9.996;2022-07-06T10:45:50;4.25;;;2.30;;
21301;SDS011;10810;48.270;9.996;2022-07-06T10:48:20;5.45;;;2.50;;
21301;SDS011;10810;48.270;9.996;2022-07-06T10:50:49;3.65;;;2.47;;
21301;SDS011;10810;48.270;9.996;2022-07-06T10:53:17;3.97;;;2.42;;
21301;SDS011;10810;48.270;9.996;2022-07-06T10:55:49;2.90;;;2.17;;
21301;SDS011;10810;48.270;9.996;2022-07-06T10:58:38;3.00;;;2.30;;
21301;SDS011;10810;48.270;9.996;2022-07-06T11:01:10;3.90;;;2.40;;
21301;SDS011;10810;48.270;9.996;2022-07-06T11:03:38;4.53;;;2.30;;
21301;SDS011;10810;48.270;9.996;2022-07-06T11:06:12;2.83;;;2.10;;
21301;SDS011;10810;48.270;9.996;2022-07-06T11:08:41;4.03;;;2.30;;
21301;SDS011;10810;48.270;9.996;2022-07-06T11:11:16;2.75;;;2.20;;
21301;SDS011;10810;48.270;9.996;2022-07-06T11:13:51;3.50;;;2.22;;
21301;SDS011;10810;48.270;9.996;2022-07-06T11:16:25;3.92;;;2.63;;
21301;SDS011;10810;48.270;9.996;2022-07-06T11:19:03;3.80;;;2.33;;
21301;SDS011;10810;48.270;9.996;2022-07-06T11:21:37;3.03;;;2.40;;
21301;SDS011;10810;48.270;9.996;2022-07-06T11:24:05;4.53;;;2.40;;
21301;SDS011;10810;48.270;9.996;2022-07-06T11:26:35;3.33;;;2.20;;
21301;SDS011;10810;48.270;9.996;2022-07-06T11:29:03;3.42;;;2.25;;
21301;SDS011;10810;48.270;9.996;2022-07-06T11:31:48;3.60;;;2.22;;
21301;SDS011;10810;48.270;9.996;2022-07-06T11:34:19;3.00;;;2.20;;
21301;SDS011;10810;48.270;9.996;2022-07-06T11:36:47;4.55;;;2.33;;
21301;SDS011;10810;48.270;9.996;2022-07-06T11:39:15;3.83;;;2.30;;
21301;SDS011;10810;48.270;9.996;2022-07-06T11:41:43;3.38;;;2.20;;
21301;SDS011;10810;48.270;9.996;2022-07-06T11:44:10;4.03;;;2.25;;
21301;SDS011;10810;48.270;9.996;2022-07-06T11:46:37;4.13;;;2.40;;
21301;SDS011;10810;48.270;9.996;2022-07-06T11:49:06;3.30;;;2.30;;
21301;SDS011;10810;48.270;9.996;2022-07-06T11:51:35;3.22;;;2.20;;
21301;SDS011;10810;48.270;9.996;2022-07-06T11:54:07;3.00;;;2.03;;
21301;SDS011;10810;48.270;9.996;2022-07-06T11:56:36;3.70;;;2.30;;
21301;SDS011;10810;48.270;9.996;2022-07-06T11:59:05;4.05;;;2.42;;
21301;SDS011;10810;48.270;9.996;2022-07-06T12:01:33;3.15;;;2.08;;
21301;SDS011;10810;48.270;9.996;2022-07-06T12:04:01;2.47;;;2.13;;
21301;SDS011;10810;48.270;9.996;2022-07-06T12:06:29;3.47;;;2.10;;
21301;SDS011;10810;48.270;9.996;2022-07-06T12:08:57;3.50;;;2.15;;
21301;SDS011;10810;48.270;9.996;2022-07-06T12:11:26;4.57;;;2.47;;
21301;SDS011;10810;48.270;9.996;2022-07-06T12:13:55;2.90;;;2.13;;
21301;SDS011;10810;48.270;9.996;2022-07-06T12:16:29;2.75;;;1.98;;
21301;SDS011;10810;48.270;9.996;2022-07-06T12:18:59;2.90;;;2.00;;
21301;SDS011;10810;48.270;9.996;2022-07-06T12:21:27;4.38;;;1.92;;
21301;SDS011;10810;48.270;9.996;2022-07-06T12:23:54;2.90;;;2.10;;
21301;SDS011;10810;48.270;9.996;2022-07-06T12:26:23;3.45;;;2.38;;
21301;SDS011;10810;48.270;9.996;2022-07-06T12:29:01;3.42;;;2.20;;
21301;SDS011;10810;48.270;9.996;2022-07-06T12:31:32;3.03;;;2.10;;
21301;SDS011;10810;48.270;9.996;2022-07-06T12:34:00;2.33;;;1.77;;
21301;SDS011;10810;48.270;9.996;2022-07-06T12:36:28;3.30;;;2.33;;
21301;SDS011;10810;48.270;9.996;2022-07-06T12:38:55;3.25;;;2.20;;
21301;SDS011;10810;48.270;9.996;2022-07-06T12:41:26;2.50;;;1.90;;
21301;SDS011;10810;48.270;9.996;2022-07-06T12:44:01;3.08;;;1.95;;
21301;SDS011;10810;48.270;9.996;2022-07-06T12:46:32;3.45;;;2.20;;
21301;SDS011;10810;48.270;9.996;2022-07-06T12:49:01;3.22;;;2.20;;
21301;SDS011;10810;48.270;9.996;2022-07-06T12:54:16;3.42;;;2.05;;
21301;SDS011;10810;48.270;9.996;2022-07-06T12:56:59;7.15;;;2.20;;
21301;SDS011;10810;48.270;9.996;2022-07-06T12:59:32;2.58;;;1.88;;
21301;SDS011;10810;48.270;9.996;2022-07-06T13:02:02;2.45;;;1.90;;
21301;SDS011;10810;48.270;9.996;2022-07-06T13:04:30;2.90;;;1.77;;
21301;SDS011;10810;48.270;9.996;2022-07-06T13:06:58;4.30;;;1.80;;
21301;SDS011;10810;48.270;9.996;2022-07-06T13:09:27;2.58;;;1.77;;
21301;SDS011;10810;48.270;9.996;2022-07-06T13:11:54;3.17;;;1.80;;
21301;SDS011;10810;48.270;9.996;2022-07-06T13:14:22;3.30;;;1.92;;
21301;SDS011;10810;48.270;9.996;2022-07-06T13:16:49;3.25;;;1.83;;
21301;SDS011;10810;48.270;9.996;2022-07-06T13:19:18;4.35;;;1.92;;
21301;SDS011;10810;48.270;9.996;2022-07-06T13:21:45;2.45;;;1.85;;
21301;SDS011;10810;48.270;9.996;2022-07-06T13:24:12;3.40;;;1.95;;
21301;SDS011;10810;48.270;9.996;2022-07-06T13:26:39;2.25;;;1.88;;
21301;SDS011;10810;48.270;9.996;2022-07-06T13:29:06;2.88;;;1.95;;
21301;SDS011;10810;48.270;9.996;2022-07-06T13:31:36;1.73;;;1.60;;
21301;SDS011;10810;48.270;9.996;2022-07-06T13:34:04;3.72;;;1.92;;
21301;SDS011;10810;48.270;9.996;2022-07-06T13:36:34;3.05;;;1.75;;
21301;SDS011;10810;48.270;9.996;2022-07-06T13:39:01;3.00;;;1.90;;
21301;SDS011;10810;48.270;9.996;2022-07-06T13:41:29;2.38;;;1.90;;
21301;SDS011;10810;48.270;9.996;2022-07-06T13:43:56;2.45;;;1.80;;
21301;SDS011;10810;48.270;9.996;2022-07-06T13:46:25;2.70;;;1.90;;
21301;SDS011;10810;48.270;9.996;2022-07-06T13:48:53;3.10;;;1.90;;
21301;SDS011;10810;48.270;9.996;2022-07-06T13:51:20;3.03;;;1.98;;
21301;SDS011;10810;48.270;9.996;2022-07-06T13:53:49;2.30;;;1.80;;
21301;SDS011;10810;48.270;9.996;2022-07-06T13:56:16;3.83;;;1.98;;
21301;SDS011;10810;48.270;9.996;2022-07-06T13:58:43;2.88;;;2.30;;
21301;SDS011;10810;48.270;9.996;2022-07-06T14:01:10;3.58;;;2.00;;
21301;SDS011;10810;48.270;9.996;2022-07-06T14:03:38;2.63;;;1.92;;
21301;SDS011;10810;48.270;9.996;2022-07-06T14:06:05;3.17;;;2.08;;
21301;SDS011;10810;48.270;9.996;2022-07-06T14:08:33;3.90;;;2.00;;
21301;SDS011;10810;48.270;9.996;2022-07-06T14:11:02;2.70;;;1.95;;
21301;SDS011;10810;48.270;9.996;2022-07-06T14:13:30;2.50;;;1.90;;
21301;SDS011;10810;48.270;9.996;2022-07-06T14:15:57;3.63;;;2.00;;
21301;SDS011;10810;48.270;9.996;2022-07-06T14:18:24;2.58;;;1.80;;
21301;SDS011;10810;48.270;9.996;2022-07-06T14:20:52;3.05;;;1.80;;
21301;SDS011;10810;48.270;9.996;2022-07-06T14:23:20;4.60;;;2.08;;
21301;SDS011;10810;48.270;9.996;2022-07-06T14:25:48;4.55;;;2.05;;
21301;SDS011;10810;48.270;9.996;2022-07-06T14:28:17;3.05;;;2.10;;
21301;SDS011;10810;48.270;9.996;2022-07-06T14:30:44;2.30;;;1.90;;
21301;SDS011;10810;48.270;9.996;2022-07-06T14:33:12;4.25;;;1.80;;
21301;SDS011;10810;48.270;9.996;2022-07-06T14:35:42;3.53;;;2.00;;
21301;SDS011;10810;48.270;9.996;2022-07-06T14:38:12;2.60;;;1.73;;
21301;SDS011;10810;48.270;9.996;2022-07-06T14:40:40;2.60;;;1.90;;
21301;SDS011;10810;48.270;9.996;2022-07-06T14:43:08;4.40;;;2.10;;
21301;SDS011;10810;48.270;9.996;2022-07-06T14:45:37;3.25;;;2.20;;
21301;SDS011;10810;48.270;9.996;2022-07-06T14:48:04;3.35;;;2.20;;
21301;SDS011;10810;48.270;9.996;2022-07-06T14:50:32;3.75;;;2.10;;
21301;SDS011;10810;48.270;9.996;2022-07-06T14:53:00;3.03;;;2.30;;
21301;SDS011;10810;48.270;9.996;2022-07-06T14:55:27;4.57;;;2.40;;
21301;SDS011;10810;48.270;9.996;2022-07-06T14:57:54;3.10;;;2.10;;
21301;SDS011;10810;48.270;9.996;2022-07-06T15:00:21;3.08;;;2.33;;
21301;SDS011;10810;48.270;9.996;2022-07-06T15:02:50;2.80;;;2.20;;
21301;SDS011;10810;48.270;9.996;2022-07-06T15:05:17;2.50;;;2.13;;
21301;SDS011;10810;48.270;9.996;2022-07-06T15:07:44;2.95;;;2.10;;
21301;SDS011;10810;48.270;9.996;2022-07-06T15:10:11;3.25;;;2.10;;
21301;SDS011;10810;48.270;9.996;2022-07-06T15:12:38;3.33;;;2.40;;
21301;SDS011;10810;48.270;9.996;2022-07-06T15:15:06;2.42;;;2.00;;
21301;SDS011;10810;48.270;9.996;2022-07-06T15:17:34;5.75;;;2.25;;
21301;SDS011;10810;48.270;9.996;2022-07-06T15:20:03;2.95;;;2.22;;
21301;SDS011;10810;48.270;9.996;2022-07-06T15:22:30;3.80;;;2.45;;
21301;SDS011;10810;48.270;9.996;2022-07-06T15:24:58;3.45;;;2.50;;
21301;SDS011;10810;48.270;9.996;2022-07-06T15:27:25;3.50;;;2.60;;